Time;durP1;ratioP1;P1;durP2;ratioP2;P2;SDS_P1;SDS_P2;PMS_P1;PMS_P2;Temp;Humidity;BMP_temperature;BMP_pressure;BME280_temperature;BME280_humidity;BME280_pressure;Samples;Min_cycle;Max_cycle;Signal;HPM_P1;HPM_P2
2021/12/16 00:10:13;;;;;;;73.45;38.35;;;;;;;8.60;100.00;103323.78;6218673;23;20054;-65
2021/12/16 00:31:48;;;;;;;69.65;39.17;;;;;;;8.56;100.00;103324.50;6218799;23;20043;-64
2021/12/16 00:34:14;;;;;;;;;;;;;;;8.64;100.00;103329.16;6219295;23;20012;-65
2021/12/16 00:36:41;;;;;;;76.07;39.53;;;;;;;8.58;100.00;103331.56;6218488;23;19907;-65
2021/12/16 00:39:12;;;;;;;68.05;38.40;;;;;;;8.57;100.00;103334.13;6218531;23;20386;-66
2021/12/16 00:41:39;;;;;;;73.47;40.40;;;;;;;8.59;100.00;103333.34;6219128;23;20054;-65
2021/12/16 00:44:14;;;;;;;73.80;39.20;;;;;;;8.58;100.00;103335.88;6218890;23;20317;-65
2021/12/16 00:49:47;;;;;;;69.43;38.28;;;;;;;8.59;100.00;103338.56;6186376;23;20103;-64
2021/12/16 00:55:11;;;;;;;72.97;38.65;;;;;;;8.54;100.00;103334.88;6206575;23;20055;-65
2021/12/16 00:57:37;;;;;;;69.43;38.55;;;;;;;8.54;100.00;103328.78;6218944;23;20004;-64
2021/12/16 01:00:05;;;;;;;73.22;38.60;;;;;;;8.55;100.00;103333.16;6218960;23;20012;-65
2021/12/16 01:05:54;;;;;;;76.00;38.78;;;;;;;8.59;100.00;103333.34;6228388;23;20004;-64
2021/12/16 01:45:37;;;;;;;67.53;37.35;;;;;;;8.57;100.00;103355.88;6200127;23;20078;-66
2021/12/16 01:51:36;;;;;;;70.90;38.53;;;;;;;8.62;100.00;103366.50;6217714;23;20027;-65
2021/12/16 01:56:48;;;;;;;76.00;39.05;;;;;;;8.57;100.00;103360.22;6228401;23;20398;-65
2021/12/16 01:59:18;;;;;;;73.68;38.63;;;;;;;8.55;100.00;103361.88;6218290;23;20028;-65
2021/12/16 02:01:44;;;;;;;69.85;38.10;;;;;;;8.56;100.00;103369.75;6218059;23;20011;-65
2021/12/16 02:04:19;;;;;;;70.45;37.83;;;;;;;8.58;100.00;103381.16;6217693;23;20036;-66
2021/12/16 02:07:06;;;;;;;67.10;38.95;;;;;;;8.58;100.00;103377.66;6217801;23;20298;-66
2021/12/16 02:09:39;;;;;;;70.32;38.10;;;;;;;8.57;100.00;103378.47;6218088;23;20083;-66
2021/12/16 02:12:19;;;;;;;74.78;38.85;;;;;;;8.54;100.00;103365.31;6218170;23;20032;-66
2021/12/16 02:28:51;;;;;;;68.55;37.92;;;;;;;8.53;100.00;103376.59;6217592;23;20028;-65
2021/12/16 02:31:47;;;;;;;68.75;37.05;;;;;;;8.51;100.00;103376.53;6217341;23;20406;-65
2021/12/16 02:34:25;;;;;;;68.45;37.22;;;;;;;8.56;100.00;103388.03;6217500;23;20418;-65
2021/12/16 02:36:53;;;;;;;69.60;37.92;;;;;;;8.55;100.00;103391.47;6217960;23;20084;-65
2021/12/16 02:39:29;;;;;;;68.68;38.47;;;;;;;8.53;100.00;103392.25;6217484;23;20009;-65
2021/12/16 02:42:00;;;;;;;63.50;36.00;;;;;;;8.54;100.00;103384.47;6217613;23;20062;-64
2021/12/16 02:44:41;;;;;;;66.40;37.38;;;;;;;8.50;100.00;103381.69;6217630;23;20302;-64
2021/12/16 02:49:53;;;;;;;69.55;38.03;;;;;;;8.50;100.00;103395.63;6217363;23;20441;-65
2021/12/16 02:52:22;;;;;;;66.00;37.05;;;;;;;8.46;100.00;103385.06;6217799;23;20004;-65
2021/12/16 02:54:48;;;;;;;69.45;38.50;;;;;;;8.51;100.00;103404.34;6218117;23;20012;-64
2021/12/16 02:57:14;;;;;;;70.43;38.67;;;;;;;8.50;100.00;103397.34;6217516;23;20004;-64
2021/12/16 02:59:40;;;;;;;67.55;37.45;;;;;;;8.50;100.00;103395.63;6217666;23;20050;-64
2021/12/16 03:02:12;;;;;;;68.60;37.90;;;;;;;8.46;100.00;103391.16;6217381;23;20322;-64
2021/12/16 03:04:40;;;;;;;66.68;37.67;;;;;;;8.49;100.00;103387.75;6217460;23;20084;-65
2021/12/16 03:07:07;;;;;;;69.70;35.65;;;;;;;8.45;100.00;103392.00;6217607;23;20008;-64
2021/12/16 03:14:58;;;;;;;70.63;38.25;;;;;;;8.48;100.00;103394.72;6217107;23;20047;-65
2021/12/16 03:20:38;;;;;;;68.63;37.50;;;;;;;8.47;100.00;103390.31;6193961;23;20021;-65
2021/12/16 03:26:23;;;;;;;67.65;36.00;;;;;;;8.45;100.00;103392.00;6217446;23;20031;-65
2021/12/16 03:29:14;;;;;;;69.22;36.92;;;;;;;8.44;100.00;103385.00;6217060;23;20012;-65
2021/12/16 03:37:12;;;;;;;65.60;36.97;;;;;;;8.37;100.00;103377.75;6227478;23;20012;-65
2021/12/16 03:39:39;;;;;;;71.07;37.92;;;;;;;8.44;100.00;103389.31;6217305;23;20399;-65
2021/12/16 03:42:05;;;;;;;73.75;39.20;;;;;;;8.40;100.00;103388.31;6217386;23;20013;-64
2021/12/16 03:44:48;;;;;;;66.65;36.80;;;;;;;8.45;100.00;103393.72;6217569;23;20330;-65
2021/12/16 03:47:13;;;;;;;65.78;37.53;;;;;;;8.40;100.00;103388.31;6217403;23;20036;-64
2021/12/16 03:49:39;;;;;;;69.00;37.63;;;;;;;8.40;100.00;103388.31;6217674;23;20031;-64
2021/12/16 03:52:08;;;;;;;67.07;36.75;;;;;;;8.42;100.00;103393.59;6217410;23;20035;-64
2021/12/16 03:54:40;;;;;;;66.97;37.30;;;;;;;8.43;100.00;103406.69;6217201;23;20024;-65
2021/12/16 03:57:07;;;;;;;;;;;;;;;8.49;100.00;103412.13;6217700;23;20004;-65
2021/12/16 03:59:34;;;;;;;63.53;36.55;;;;;;;8.42;100.00;103417.97;6217425;23;19954;-65
2021/12/16 04:02:06;;;;;;;72.60;38.22;;;;;;;8.42;100.00;103420.56;6217292;23;20015;-65
2021/12/16 04:04:31;;;;;;;67.82;37.45;;;;;;;8.42;100.00;103419.69;6217492;23;20008;-65
2021/12/16 04:06:57;;;;;;;62.15;35.83;;;;;;;8.39;100.00;103412.63;6217598;23;20058;-65
2021/12/16 04:09:23;;;;;;;65.30;36.20;;;;;;;8.39;100.00;103410.03;6217147;23;20353;-63
2021/12/16 04:12:07;;;;;;;68.88;38.03;;;;;;;8.39;100.00;103415.25;6217354;23;20027;-64
2021/12/16 04:14:33;;;;;;;66.63;36.58;;;;;;;8.39;100.00;103417.84;6217835;23;20005;-64
2021/12/16 04:17:02;;;;;;;64.75;36.60;;;;;;;8.36;100.00;103415.13;6219008;23;20135;-64
2021/12/16 04:19:29;;;;;;;66.55;36.28;;;;;;;8.36;100.00;103417.72;6218701;23;20302;-64
2021/12/16 04:22:06;;;;;;;62.08;35.72;;;;;;;8.33;100.00;103410.66;6219083;23;20092;-65
2021/12/16 04:24:32;;;;;;;60.97;35.00;;;;;;;8.34;100.00;103416.78;6219408;23;20009;-65
2021/12/16 04:26:59;;;;;;;61.72;36.35;;;;;;;8.31;100.00;103417.50;6219127;23;20026;-64
2021/12/16 04:29:25;;;;;;;67.35;37.35;;;;;;;8.33;100.00;103417.59;6219080;23;20004;-63
2021/12/16 04:31:54;;;;;;;65.55;37.47;;;;;;;8.30;100.00;103422.72;6218653;23;20365;-64
2021/12/16 04:34:19;;;;;;;67.15;36.72;;;;;;;8.30;100.00;103412.28;6218729;23;20008;-64
2021/12/16 04:36:45;;;;;;;66.55;36.53;;;;;;;8.25;100.00;103412.09;6219032;23;20364;-64
2021/12/16 04:39:13;;;;;;;70.05;36.78;;;;;;;8.23;100.00;103412.84;6218853;23;20005;-64
2021/12/16 04:41:40;;;;;;;62.50;36.78;;;;;;;8.20;100.00;103405.81;6219025;23;20044;-63
2021/12/16 04:44:11;;;;;;;66.93;37.55;;;;;;;8.15;100.00;103398.63;6218888;23;20008;-64
2021/12/16 04:46:37;;;;;;;62.95;35.55;;;;;;;8.21;100.00;103414.53;6217992;23;20030;-65
2021/12/16 04:49:04;;;;;;;65.95;36.67;;;;;;;8.16;100.00;103406.50;6218965;23;20023;-64
2021/12/16 04:51:33;;;;;;;68.07;36.67;;;;;;;8.12;100.00;103414.19;6218322;23;20414;-64
2021/12/16 04:53:59;;;;;;;65.80;36.25;;;;;;;8.08;100.00;103410.56;6218746;23;20005;-64
2021/12/16 04:56:26;;;;;;;70.22;37.03;;;;;;;7.96;100.00;103400.56;6218772;23;20030;-64
2021/12/16 04:58:54;;;;;;;67.60;37.67;;;;;;;7.98;100.00;103413.63;6218529;23;20016;-63
2021/12/16 05:01:21;;;;;;;69.72;36.67;;;;;;;7.95;100.00;103405.72;6218359;23;20028;-64
2021/12/16 05:03:46;;;;;;;70.30;38.25;;;;;;;7.86;100.00;103406.25;6218677;23;20004;-64
2021/12/16 05:06:12;;;;;;;66.90;36.28;;;;;;;7.80;100.00;103416.41;6218592;23;20279;-64
2021/12/16 05:08:38;;;;;;;67.15;36.05;;;;;;;7.78;100.00;103423.31;6218569;23;20009;-64
2021/12/16 05:11:13;;;;;;;64.97;36.53;;;;;;;7.68;100.00;103408.13;6218473;23;20317;-64
2021/12/16 05:13:40;;;;;;;61.45;35.55;;;;;;;7.61;100.00;103412.22;6218297;23;20421;-64
2021/12/16 05:16:06;;;;;;;65.85;36.35;;;;;;;7.55;100.00;103411.97;6217056;23;20483;-64
2021/12/16 05:18:36;;;;;;;69.22;37.60;;;;;;;7.57;100.00;103420.75;6218650;23;20004;-64
2021/12/16 05:21:07;;;;;;;62.53;33.95;;;;;;;7.48;100.00;103415.16;6218467;23;20016;-64
2021/12/16 05:26:19;;;;;;;58.63;33.92;;;;;;;7.38;100.00;103412.13;6217763;23;20317;-65
2021/12/16 05:28:52;;;;;;;58.80;33.63;;;;;;;7.33;100.00;103420.63;6217107;23;20023;-64
2021/12/16 05:31:20;;;;;;;55.70;33.60;;;;;;;7.25;100.00;103421.16;6218296;23;20284;-64
2021/12/16 05:33:46;;;;;;;68.90;37.22;;;;;;;7.23;100.00;103420.19;6218369;23;20009;-63
2021/12/16 05:36:12;;;;;;;64.57;35.55;;;;;;;7.20;100.00;103433.97;6218092;23;20050;-64
2021/12/16 05:38:38;;;;;;;63.85;34.28;;;;;;;7.15;100.00;103429.38;6217853;23;20386;-64
2021/12/16 05:41:07;;;;;;;57.35;33.60;;;;;;;7.15;100.00;103434.59;6217928;23;20027;-63
2021/12/16 05:43:32;;;;;;;65.72;36.22;;;;;;;7.12;100.00;103437.94;6218242;23;20019;-63
2021/12/16 05:45:59;;;;;;;59.95;34.58;;;;;;;6.99;100.00;103436.56;6218534;23;20001;-63
2021/12/16 05:48:28;;;;;;;62.97;34.53;;;;;;;6.99;100.00;103440.88;6217913;23;20005;-63
2021/12/16 05:50:57;;;;;;;58.45;33.53;;;;;;;6.89;100.00;103441.31;6218198;23;20047;-64
2021/12/16 05:53:22;;;;;;;57.90;33.05;;;;;;;6.87;100.00;103455.97;6218289;23;20004;-62
2021/12/16 05:55:48;;;;;;;57.13;32.97;;;;;;;6.79;100.00;103441.72;6218108;23;20394;-63
2021/12/16 05:58:18;;;;;;;59.78;32.40;;;;;;;6.68;100.00;103446.47;6218029;23;20087;-65
2021/12/16 06:00:48;;;;;;;55.53;31.95;;;;;;;6.68;100.00;103467.28;6217395;23;20088;-64
2021/12/16 06:03:14;;;;;;;54.30;32.08;;;;;;;6.67;100.00;103462.00;6217435;23;20016;-64
2021/12/16 06:05:40;;;;;;;51.67;30.92;;;;;;;6.57;100.00;103466.81;6218387;23;20005;-64
2021/12/16 06:08:06;;;;;;;58.25;31.90;;;;;;;6.53;100.00;103471.78;6217991;23;20009;-64
2021/12/16 06:11:13;;;;;;;59.63;34.05;;;;;;;6.52;100.00;103489.13;6217663;23;20298;-65
2021/12/16 06:13:34;;;;;;;55.30;31.98;;;;;;;6.39;100.00;103468.56;6217962;23;20040;-65
2021/12/16 06:29:21;;;;;;;53.17;30.13;;;;;;;6.17;100.00;103481.38;6227897;23;20012;-64
2021/12/16 06:31:46;;;;;;;53.38;31.10;;;;;;;6.22;100.00;103491.19;6217772;23;20000;-63
2021/12/16 06:34:12;;;;;;;59.00;31.63;;;;;;;6.20;100.00;103489.34;6217415;23;20402;-64
2021/12/16 06:36:37;;;;;;;51.88;30.65;;;;;;;6.23;100.00;103500.75;6217296;23;20150;-64
2021/12/16 06:39:04;;;;;;;51.78;30.38;;;;;;;6.22;100.00;103492.91;6217848;23;20014;-64
2021/12/16 06:41:34;;;;;;;51.60;30.27;;;;;;;6.20;100.00;103489.34;6217769;23;20020;-65
2021/12/16 06:44:02;;;;;;;55.38;31.67;;;;;;;6.14;100.00;103486.44;6217745;23;20005;-66
2021/12/16 06:46:33;;;;;;;51.78;31.05;;;;;;;6.12;100.00;103496.75;6217176;23;20079;-64
2021/12/16 06:49:00;;;;;;;51.00;30.25;;;;;;;6.11;100.00;103499.28;6217412;23;20394;-65
2021/12/16 06:51:44;;;;;;;54.15;31.02;;;;;;;6.03;100.00;103498.06;6217556;23;20100;-64
2021/12/16 06:54:15;;;;;;;47.80;28.45;;;;;;;5.97;100.00;103498.63;6217609;23;20012;-64
2021/12/16 06:56:50;;;;;;;53.70;30.47;;;;;;;5.90;100.00;103492.25;6217679;23;20012;-66
2021/12/16 06:59:23;;;;;;;49.35;28.50;;;;;;;5.90;100.00;103497.44;6217602;23;20004;-63
2021/12/16 07:02:18;;;;;;;51.58;30.70;;;;;;;5.91;100.00;103504.41;6218002;23;20076;-65
2021/12/16 07:04:37;;;;;;;51.50;29.67;;;;;;;5.81;100.00;103502.19;6217409;23;20012;-64
2021/12/16 07:07:06;;;;;;;49.45;29.75;;;;;;;5.80;100.00;103500.38;6217930;23;20012;-64
2021/12/16 07:09:31;;;;;;;51.47;29.73;;;;;;;5.78;100.00;103507.22;6217690;23;20005;-65
2021/12/16 07:11:59;;;;;;;56.72;31.48;;;;;;;5.76;100.00;103513.16;6217015;23;20027;-63
2021/12/16 07:14:35;;;;;;;53.47;30.25;;;;;;;5.73;100.00;103516.47;6217629;23;20084;-65
2021/12/16 07:17:08;;;;;;;47.40;29.42;;;;;;;5.70;100.00;103515.47;6217261;23;20004;-65
2021/12/16 07:19:33;;;;;;;;;;;;;;;5.75;100.00;103527.84;6218295;23;20012;-65
2021/12/16 07:21:59;;;;;;;51.53;30.65;;;;;;;5.65;100.00;103532.53;6217526;23;19966;-64
2021/12/16 07:24:24;;;;;;;53.30;30.13;;;;;;;5.62;100.00;103530.66;6217359;23;20004;-64
2021/12/16 07:26:49;;;;;;;50.60;29.52;;;;;;;5.61;100.00;103531.47;6217621;23;20545;-64
2021/12/16 07:29:15;;;;;;;48.15;29.40;;;;;;;5.62;100.00;103540.16;6216963;23;20016;-64
2021/12/16 07:31:41;;;;;;;53.10;31.13;;;;;;;5.54;100.00;103551.03;6217349;23;20040;-64
2021/12/16 07:34:09;;;;;;;52.08;31.02;;;;;;;5.52;100.00;103555.28;6216238;23;20016;-64
2021/12/16 07:36:36;;;;;;;54.05;31.63;;;;;;;5.50;100.00;103556.03;6217518;23;20004;-63
2021/12/16 07:39:08;;;;;;;51.20;29.55;;;;;;;5.53;100.00;103564.88;6217515;23;20009;-64
2021/12/16 07:41:35;;;;;;;58.10;33.58;;;;;;;5.56;100.00;103561.50;6217126;23;20413;-62
2021/12/16 07:44:10;;;;;;;51.60;29.67;;;;;;;5.52;100.00;103564.78;6216698;23;20439;-63
2021/12/16 07:46:44;;;;;;;53.78;31.35;;;;;;;5.49;100.00;103572.41;6217309;23;20313;-64
2021/12/16 07:49:11;;;;;;;48.85;29.70;;;;;;;5.43;100.00;103572.97;6218758;23;20009;-64
2021/12/16 07:51:38;;;;;;;62.45;33.55;;;;;;;5.44;100.00;103579.97;6219094;23;20054;-64
2021/12/16 07:54:04;;;;;;;60.45;33.88;;;;;;;5.46;100.00;103580.94;6219353;23;20001;-63
2021/12/16 07:56:30;;;;;;;54.83;31.55;;;;;;;5.44;100.00;103584.25;6218724;23;20357;-63
2021/12/16 07:58:55;;;;;;;54.97;32.08;;;;;;;5.46;100.00;103593.03;6219038;23;20008;-63
2021/12/16 08:01:21;;;;;;;53.03;30.65;;;;;;;5.44;100.00;103592.06;6219383;23;20004;-63
2021/12/16 08:03:47;;;;;;;51.33;30.38;;;;;;;5.48;100.00;103600.09;6218729;23;20337;-63
2021/12/16 08:06:21;;;;;;;55.58;31.25;;;;;;;5.44;100.00;103608.53;6218975;23;20298;-63
2021/12/16 08:08:47;;;;;;;48.17;29.17;;;;;;;5.46;100.00;103613.81;6218899;23;20042;-64
2021/12/16 08:11:12;;;;;;;57.22;31.90;;;;;;;5.44;100.00;103612.84;6218629;23;20005;-63
2021/12/16 08:13:37;;;;;;;57.00;31.23;;;;;;;5.44;100.00;103612.84;6218788;23;20012;-63
2021/12/16 08:16:04;;;;;;;52.35;30.83;;;;;;;5.46;100.00;103622.50;6218832;23;20009;-61
2021/12/16 08:18:30;;;;;;;52.78;29.75;;;;;;;5.33;100.00;103599.31;6219034;23;20009;-65
2021/12/16 08:20:55;;;;;;;50.35;30.08;;;;;;;5.44;100.00;103610.22;6218943;23;20039;-65
2021/12/16 08:23:22;;;;;;;51.58;31.00;;;;;;;5.47;100.00;103628.56;6219036;23;20394;-65
2021/12/16 08:25:47;;;;;;;56.50;32.60;;;;;;;5.45;100.00;103630.19;6218732;23;20004;-64
2021/12/16 08:28:13;;;;;;;57.05;31.38;;;;;;;5.43;100.00;103632.72;6218794;23;20015;-65
2021/12/16 08:30:41;;;;;;;57.08;32.30;;;;;;;5.46;100.00;103632.88;6218874;23;20066;-64
2021/12/16 08:33:10;;;;;;;53.65;30.05;;;;;;;5.50;100.00;103640.03;6218892;23;20009;-65
2021/12/16 08:35:40;;;;;;;49.60;29.90;;;;;;;5.57;100.00;103644.69;6218844;23;20015;-65
2021/12/16 08:38:06;;;;;;;51.30;30.65;;;;;;;5.59;100.00;103639.59;6218610;23;20402;-63
2021/12/16 08:40:32;;;;;;;49.75;29.42;;;;;;;5.60;100.00;103642.28;6218184;23;20385;-64
2021/12/16 08:42:57;;;;;;;48.85;29.77;;;;;;;5.62;100.00;103644.06;6218806;23;20079;-64
2021/12/16 08:45:27;;;;;;;52.20;31.02;;;;;;;5.67;100.00;103653.00;6218627;23;20147;-64
2021/12/16 08:47:53;;;;;;;61.95;32.65;;;;;;;5.71;100.00;103640.25;6218690;23;20011;-64
2021/12/16 08:50:22;;;;;;;69.63;35.25;;;;;;;5.79;100.00;103646.72;6218635;23;20016;-63
2021/12/16 08:52:48;;;;;;;63.10;33.35;;;;;;;5.89;100.00;103658.47;6218616;23;20024;-63
2021/12/16 08:55:14;;;;;;;73.35;36.40;;;;;;;5.95;100.00;103661.41;6219382;23;20013;-63
2021/12/16 08:57:40;;;;;;;73.68;35.40;;;;;;;6.02;100.00;103657.44;6218354;23;20394;-63
2021/12/16 09:00:10;;;;;;;72.15;36.28;;;;;;;6.06;100.00;103669.78;6218487;23;20023;-63
2021/12/16 09:02:35;;;;;;;66.95;36.05;;;;;;;6.09;100.00;103673.38;6218352;23;20017;-63
2021/12/16 09:05:00;;;;;;;67.63;35.67;;;;;;;6.13;100.00;103677.03;6218730;23;20142;-64
2021/12/16 09:07:26;;;;;;;67.47;35.08;;;;;;;6.07;100.00;103656.81;6218495;23;20458;-64
2021/12/16 09:09:52;;;;;;;67.43;34.63;;;;;;;6.19;100.00;103677.34;6218651;23;20099;-63
2021/12/16 09:14:52;;;;;;;63.85;34.47;;;;;;;6.25;100.00;103675.03;6218869;23;20012;-65
2021/12/16 09:17:18;;;;;;;66.55;34.92;;;;;;;6.38;100.00;103668.75;6218736;23;20008;-65
2021/12/16 09:19:48;;;;;;;63.45;33.65;;;;;;;6.41;100.00;103682.78;6218476;23;20040;-65
2021/12/16 09:22:16;;;;;;;67.28;36.13;;;;;;;6.50;100.00;103683.25;6218723;23;20271;-65
2021/12/16 09:24:43;;;;;;;71.38;37.47;;;;;;;6.58;100.00;103684.50;6217851;23;20008;-65
2021/12/16 09:27:09;;;;;;;64.70;36.33;;;;;;;6.66;100.00;103673.56;6218185;23;20020;-64
2021/12/16 09:29:34;;;;;;;64.10;35.42;;;;;;;6.77;100.00;103675.84;6218356;23;20004;-64
2021/12/16 09:32:03;;;;;;;65.03;37.58;;;;;;;6.79;100.00;103676.81;6218230;23;20337;-65
2021/12/16 09:34:28;;;;;;;70.43;39.80;;;;;;;6.89;100.00;103680.78;6218487;23;20017;-65
2021/12/16 09:36:54;;;;;;;68.18;39.08;;;;;;;6.92;100.00;103675.72;6217261;23;20011;-67
2021/12/16 09:39:23;;;;;;;71.10;39.00;;;;;;;7.00;100.00;103674.34;6215795;23;20005;-64
2021/12/16 09:41:51;;;;;;;74.13;40.85;;;;;;;7.06;100.00;103685.06;6217968;23;20100;-64
2021/12/16 09:44:18;;;;;;;76.57;42.83;;;;;;;7.19;100.00;103690.00;6217273;23;20461;-64
2021/12/16 09:46:46;;;;;;;68.10;38.72;;;;;;;7.26;100.00;103688.59;6218051;23;20009;-65
2021/12/16 09:49:12;;;;;;;62.72;36.22;;;;;;;7.31;100.00;103692.28;6216589;23;20413;-65
2021/12/16 09:51:41;;;;;;;65.53;37.67;;;;;;;7.41;100.00;103694.50;6218283;23;20004;-65
2021/12/16 09:54:09;;;;;;;66.85;37.30;;;;;;;7.50;100.00;103696.59;6218268;23;20028;-64
2021/12/16 09:56:37;;;;;;;64.30;37.92;;;;;;;7.56;100.00;103683.84;6218506;23;20000;-64
2021/12/16 09:59:04;;;;;;;77.93;44.83;;;;;;;7.66;100.00;103680.81;6218377;23;20008;-64
2021/12/16 10:01:31;;;;;;;69.28;38.78;;;;;;;7.71;100.00;103679.31;6218088;23;20139;-63
2021/12/16 10:04:03;;;;;;;64.20;38.05;;;;;;;7.83;100.00;103689.38;6218080;23;20015;-64
2021/12/16 10:06:30;;;;;;;68.88;39.00;;;;;;;7.89;100.00;103692.25;6218301;23;20004;-64
2021/12/16 10:08:59;;;;;;;73.20;40.35;;;;;;;8.00;100.00;103685.78;6217715;23;20477;-64
2021/12/16 10:11:24;;;;;;;60.67;36.20;;;;;;;8.05;100.00;103681.66;6217186;23;20310;-64
2021/12/16 10:14:04;;;;;;;69.88;41.05;;;;;;;8.04;100.00;103659.91;6217800;23;20004;-62
2021/12/16 10:19:18;;;;;;;68.82;39.78;;;;;;;8.58;100.00;103681.28;6217853;23;20018;-65
2021/12/16 10:21:45;;;;;;;67.43;40.38;;;;;;;8.71;100.00;103673.13;6218071;23;20008;-66
2021/12/16 10:24:25;;;;;;;71.00;41.88;;;;;;;8.90;100.00;103695.63;6218239;23;20039;-65
2021/12/16 10:27:23;;;;;;;62.65;40.50;;;;;;;8.90;100.00;103673.84;6217716;23;20012;-64
2021/12/16 10:29:58;;;;;;;65.00;40.92;;;;;;;9.14;100.00;103687.84;6199779;23;20276;-64
2021/12/16 10:32:42;;;;;;;65.32;39.13;;;;;;;9.32;100.00;103682.44;6217569;23;20330;-64
2021/12/16 10:35:12;;;;;;;58.35;38.08;;;;;;;9.31;100.00;103672.81;6217670;23;20009;-63
2021/12/16 10:37:42;;;;;;;61.55;38.63;;;;;;;9.42;100.00;103684.53;6217749;23;20342;-65
2021/12/16 10:40:28;;;;;;;63.70;38.30;;;;;;;9.52;100.00;103676.22;6217913;23;20015;-64
2021/12/16 10:42:54;;;;;;;62.58;36.90;;;;;;;9.63;100.00;103673.97;6217471;23;20401;-64
2021/12/16 10:45:35;;;;;;;56.55;36.30;;;;;;;9.74;100.00;103681.34;6217373;23;20008;-65
2021/12/16 10:48:17;;;;;;;59.88;35.80;;;;;;;9.94;100.00;103684.69;6217545;23;20414;-65
2021/12/16 10:50:57;;;;;;;53.40;33.50;;;;;;;10.07;100.00;103671.16;6217756;23;20023;-64
2021/12/16 10:53:53;;;;;;;56.58;33.10;;;;;;;10.23;100.00;103682.19;6217595;23;20047;-64
2021/12/16 10:56:24;;;;;;;51.03;31.60;;;;;;;10.20;100.00;103672.53;6217663;23;20421;-65
2021/12/16 10:58:51;;;;;;;54.53;31.13;;;;;;;10.10;100.00;103673.91;6218227;23;20318;-64
2021/12/16 11:01:48;;;;;;;46.58;28.90;;;;;;;10.07;100.00;103679.00;6217694;23;20263;-64
2021/12/16 11:04:51;;;;;;;47.97;27.63;;;;;;;10.09;100.00;103690.44;6167473;23;20008;-64
2021/12/16 11:07:25;;;;;;;44.97;28.30;;;;;;;10.13;100.00;103680.97;6217607;23;20079;-63
2021/12/16 11:10:08;;;;;;;47.38;28.83;;;;;;;10.13;100.00;103684.47;6217581;23;20005;-63
2021/12/16 11:12:43;;;;;;;44.67;28.17;;;;;;;10.19;100.00;103685.56;6217499;23;20015;-64
2021/12/16 11:15:37;;;;;;;46.55;28.17;;;;;;;10.27;100.00;103684.06;6217614;23;20362;-64
2021/12/16 11:18:15;;;;;;;45.40;28.90;;;;;;;10.22;100.00;103680.41;6198031;23;20452;-64
2021/12/16 11:20:47;;;;;;;48.88;28.85;;;;;;;10.27;100.00;103692.81;6217369;23;20005;-63
2021/12/16 11:23:20;;;;;;;44.70;27.60;;;;;;;10.30;100.00;103692.03;6217630;23;20405;-64
2021/12/16 11:25:54;;;;;;;45.75;26.58;;;;;;;10.30;100.00;103690.31;6221127;23;20005;-64
2021/12/16 11:28:31;;;;;;;43.20;27.20;;;;;;;10.36;100.00;103695.75;6220661;23;20390;-64
2021/12/16 11:31:15;;;;;;;36.85;22.55;;;;;;;10.30;100.00;103687.69;6220875;23;20405;-63
2021/12/16 11:33:48;;;;;;;38.47;22.65;;;;;;;10.25;100.00;103693.59;6220660;23;20012;-61
2021/12/16 11:36:26;;;;;;;36.88;21.85;;;;;;;10.16;100.00;103694.16;6220919;23;20008;-64
2021/12/16 11:38:55;;;;;;;41.40;22.52;;;;;;;10.12;100.00;103685.31;6220979;23;20008;-64
2021/12/16 11:41:35;;;;;;;34.60;22.00;;;;;;;10.08;100.00;103688.66;6220922;23;20024;-63
2021/12/16 11:44:06;;;;;;;37.83;21.10;;;;;;;10.05;100.00;103678.06;6220431;23;20004;-63
2021/12/16 11:46:40;;;;;;;38.20;22.80;;;;;;;10.10;100.00;103680.84;6220719;23;20012;-63
2021/12/16 11:49:14;;;;;;;36.83;22.73;;;;;;;10.26;100.00;103687.53;6220173;23;20083;-62
2021/12/16 11:51:52;;;;;;;34.25;22.52;;;;;;;10.48;100.00;103684.78;6219981;23;20004;-60
2021/12/16 11:54:23;;;;;;;35.28;22.25;;;;;;;10.65;100.00;103680.97;6219985;23;20004;-64
2021/12/16 11:56:54;;;;;;;35.85;21.73;;;;;;;10.79;99.79;103682.28;6220596;23;20008;-63
2021/12/16 11:59:27;;;;;;;32.72;21.05;;;;;;;10.89;99.51;103687.84;6220306;23;20394;-63
2021/12/16 12:01:53;;;;;;;33.92;21.38;;;;;;;10.91;98.43;103678.28;6221021;23;20000;-63
2021/12/16 12:04:30;;;;;;;36.10;20.10;;;;;;;10.93;98.68;103674.84;6220085;23;20036;-63
2021/12/16 12:06:57;;;;;;;30.27;20.38;;;;;;;10.86;98.68;103677.25;6220528;23;20139;-63
2021/12/16 12:09:37;;;;;;;32.05;21.33;;;;;;;10.88;98.97;103676.47;6218483;23;20425;-63
2021/12/16 12:12:03;;;;;;;35.15;20.33;;;;;;;10.86;97.99;103685.13;6220658;23;20000;-63
2021/12/16 12:14:34;;;;;;;28.42;19.30;;;;;;;10.88;97.96;103676.47;6220357;23;20009;-63
2021/12/16 12:17:07;;;;;;;31.50;19.20;;;;;;;10.93;97.95;103673.97;6220861;23;20000;-63
2021/12/16 12:19:32;;;;;;;33.10;18.10;;;;;;;10.87;96.94;103671.19;6220417;23;20039;-63
2021/12/16 12:22:00;;;;;;;25.15;17.08;;;;;;;10.71;97.67;103656.72;6220741;23;20008;-63
2021/12/16 12:24:37;;;;;;;29.95;16.52;;;;;;;10.75;97.32;103679.53;6220205;23;20353;-63
2021/12/16 12:27:11;;;;;;;28.25;16.55;;;;;;;10.69;97.74;103674.09;6220296;23;20011;-63
2021/12/16 12:29:41;;;;;;;25.30;15.90;;;;;;;10.67;97.99;103671.44;6220629;23;20358;-63
2021/12/16 12:32:12;;;;;;;27.33;16.90;;;;;;;10.62;97.84;103678.25;6220583;23;20020;-63
2021/12/16 12:34:40;;;;;;;28.30;15.63;;;;;;;10.60;98.58;103672.06;6219504;23;20004;-63
2021/12/16 12:37:08;;;;;;;29.95;17.35;;;;;;;10.64;98.07;103673.06;6217788;23;20017;-63
2021/12/16 12:39:39;;;;;;;26.20;17.73;;;;;;;10.58;98.36;103665.00;6218100;23;20016;-63
2021/12/16 12:42:07;;;;;;;32.13;19.55;;;;;;;10.73;97.75;103665.53;6218388;23;20016;-63
2021/12/16 12:44:32;;;;;;;27.73;18.83;;;;;;;10.91;96.89;103671.28;6218391;23;20021;-63
2021/12/16 12:47:04;;;;;;;31.15;18.70;;;;;;;11.13;96.70;103668.47;6218335;23;20008;-63
2021/12/16 12:49:30;;;;;;;;;;;;;;;11.45;98.62;103674.66;6218777;23;20158;-63
2021/12/16 12:52:10;;;;;;;27.85;17.05;;;;;;;11.84;94.35;103664.41;6218266;23;20002;-63
2021/12/16 12:54:39;;;;;;;29.13;17.10;;;;;;;11.58;92.19;103652.28;6218498;23;20015;-63
2021/12/16 12:57:27;;;;;;;25.83;17.23;;;;;;;11.51;94.68;103666.97;6217697;23;20019;-62
2021/12/16 12:59:55;;;;;;;28.33;17.08;;;;;;;11.32;92.99;103663.78;6217924;23;20359;-63
2021/12/16 13:02:26;;;;;;;24.48;16.75;;;;;;;11.21;93.39;103665.22;6218675;23;20004;-63
2021/12/16 13:04:55;;;;;;;28.25;17.80;;;;;;;11.11;93.77;103662.28;6218052;23;20015;-62
2021/12/16 13:07:44;;;;;;;26.77;16.95;;;;;;;11.08;94.90;103653.47;6218222;23;20306;-63
2021/12/16 13:10:16;;;;;;;27.23;17.27;;;;;;;10.99;94.25;103656.72;6218354;23;20047;-63
2021/12/16 13:12:50;;;;;;;27.55;17.90;;;;;;;10.96;94.51;103658.34;6218548;23;20035;-63
2021/12/16 13:27:05;;;;;;;29.38;17.58;;;;;;;10.97;92.62;103652.25;6168234;23;20348;-63
2021/12/16 13:29:41;;;;;;;31.00;17.05;;;;;;;11.00;92.44;103650.63;6218085;23;20468;-63
2021/12/16 13:32:13;;;;;;;29.88;16.75;;;;;;;11.04;92.57;103662.09;6218384;23;20004;-63
2021/12/16 13:35:04;;;;;;;34.88;17.60;;;;;;;11.03;93.86;103658.59;6218010;23;20008;-63
2021/12/16 13:37:42;;;;;;;26.27;15.05;;;;;;;11.11;91.91;103658.78;6218082;23;20023;-63
2021/12/16 13:40:20;;;;;;;29.02;16.20;;;;;;;11.15;92.42;103665.91;6218053;23;20012;-63
2021/12/16 13:43:03;;;;;;;27.23;15.70;;;;;;;11.13;91.87;103663.25;6218192;23;20009;-62
2021/12/16 13:45:34;;;;;;;;;;;;;;;11.18;94.79;103662.50;6218446;23;20418;-62
2021/12/16 13:48:28;;;;;;;25.63;14.60;;;;;;;11.11;90.72;103666.66;6218230;23;19903;-63
2021/12/16 14:02:31;;;;;;;23.27;15.43;;;;;;;10.95;92.28;103672.28;6228072;23;20024;-64
2021/12/16 14:07:58;;;;;;;23.73;15.73;;;;;;;10.79;92.63;103669.19;6228162;23;20012;-62